Time;durP1;ratioP1;P1;durP2;ratioP2;P2;SDS_P1;SDS_P2;PMS_P1;PMS_P2;Temp;Humidity;BMP_temperature;BMP_pressure;BME280_temperature;BME280_humidity;BME280_pressure;Samples;Min_cycle;Max_cycle;Signal;HPM_P1;HPM_P2
2023/05/31 00:00:13;;;;;;;;;;;18.40;98.60;;;;;;4819217;29;19935;-79
2023/05/31 00:02:40;;;;;;;;;;;17.50;99.00;;;;;;4837572;29;20387;-79
2023/05/31 00:05:07;;;;;;;;;;;18.20;99.90;;;;;;4835654;29;20111;-79
2023/05/31 00:07:34;;;;;;;;;;;18.10;99.90;;;;;;4817430;29;19936;-79
2023/05/31 00:10:01;;;;;;;;;;;18.20;99.90;;;;;;4822747;29;20077;-79
2023/05/31 00:12:29;;;;;;;;;;;18.10;99.90;;;;;;4837748;29;19936;-79
2023/05/31 00:14:56;;;;;;;;;;;18.00;99.90;;;;;;4821375;29;19967;-79
2023/05/31 00:17:25;;;;;;;;;;;18.10;99.90;;;;;;4813415;29;19936;-79
2023/05/31 00:20:12;;;;;;;;;;;18.10;99.70;;;;;;4811337;29;19971;-79
2023/05/31 00:22:40;;;;;;;;;;;17.90;99.60;;;;;;4837975;29;19928;-78
2023/05/31 00:25:07;;;;;;;;;;;17.90;99.80;;;;;;4823017;29;19935;-78
2023/05/31 00:27:34;;;;;;;;;;;17.90;99.70;;;;;;4814626;29;20051;-79
2023/05/31 00:30:01;;;;;;;;;;;17.90;99.50;;;;;;4820219;29;19959;-79
2023/05/31 00:32:28;;;;;;;;;;;18.00;99.50;;;;;;4814689;29;19936;-79
2023/05/31 00:34:57;;;;;;;;;;;17.90;99.20;;;;;;4821178;29;19936;-79
2023/05/31 00:37:24;;;;;;;;;;;18.00;99.40;;;;;;4826991;29;19943;-79
2023/05/31 00:39:51;;;;;;;;;;;18.00;99.10;;;;;;4808101;29;20399;-79
2023/05/31 00:42:18;;;;;;;;;;;18.00;99.10;;;;;;4812030;29;19936;-78
2023/05/31 00:44:47;;;;;;;;;;;18.00;99.20;;;;;;4825464;29;19943;-79
2023/05/31 00:47:15;;;;;;;;;;;17.90;99.40;;;;;;4818002;29;19986;-79
2023/05/31 00:49:42;;;;;;;;;;;17.70;98.90;;;;;;4833746;29;20296;-79
2023/05/31 00:52:10;;;;;;;;;;;17.90;99.20;;;;;;4808157;29;20019;-79
2023/05/31 00:54:37;;;;;;;;;;;18.00;99.00;;;;;;4803265;29;20068;-79
2023/05/31 00:57:05;;;;;;;;;;;17.90;99.00;;;;;;4822308;29;19971;-78
2023/05/31 00:59:35;;;;;;;;;;;18.00;98.80;;;;;;4836990;29;19974;-79
2023/05/31 01:02:03;;;;;;;;;;;17.90;99.10;;;;;;4821464;29;20312;-79
2023/05/31 01:04:32;;;;;;;;;;;17.80;99.10;;;;;;4802340;29;20038;-79
2023/05/31 01:07:00;;;;;;;;;;;17.80;99.20;;;;;;4834458;29;19942;-77
2023/05/31 01:09:28;;;;;;;;;;;17.70;99.20;;;;;;4813555;29;19936;-79
2023/05/31 01:12:07;;;;;;;;;;;17.70;99.20;;;;;;4816535;29;22454;-79
2023/05/31 01:14:42;;;;;;;;;;;17.70;98.90;;;;;;4830773;29;19935;-78
2023/05/31 01:17:15;;;;;;;;;;;18.20;99.00;;;;;;4798215;29;19943;-78
2023/05/31 01:19:47;;;;;;;;;;;17.60;99.00;;;;;;4803822;29;20381;-79
2023/05/31 01:22:20;;;;;;;;;;;17.70;98.70;;;;;;4815482;29;22372;-79
2023/05/31 01:25:06;;;;;;;;;;;17.70;98.50;;;;;;4815192;29;19952;-79
2023/05/31 01:27:33;;;;;;;;;;;17.70;98.10;;;;;;4835357;29;20044;-79
2023/05/31 01:30:01;;;;;;;;;;;17.70;97.70;;;;;;4834148;29;20465;-78
2023/05/31 01:32:29;;;;;;;;;;;17.70;98.10;;;;;;4802189;29;19962;-78
2023/05/31 01:34:56;;;;;;;;;;;17.70;97.00;;;;;;4837264;29;19936;-78
2023/05/31 01:37:23;;;;;;;;;;;17.70;96.50;;;;;;4831696;29;19960;-78
2023/05/31 01:39:51;;;;;;;;;;;17.70;96.20;;;;;;4801121;29;19991;-79
2023/05/31 01:42:19;;;;;;;;;;;17.70;96.10;;;;;;4818682;29;19989;-78
2023/05/31 01:44:48;;;;;;;;;;;17.70;95.60;;;;;;4834485;29;20155;-78
2023/05/31 01:47:16;;;;;;;;;;;17.70;95.10;;;;;;4834441;29;20539;-79
2023/05/31 01:49:43;;;;;;;;;;;17.80;94.70;;;;;;4837852;29;19943;-77
2023/05/31 01:52:13;;;;;;;;;;;17.50;94.60;;;;;;4824733;29;19981;-79
2023/05/31 01:54:40;;;;;;;;;;;17.70;94.60;;;;;;4822301;29;20034;-79
2023/05/31 01:57:08;;;;;;;;;;;17.80;94.70;;;;;;4867521;29;20339;-79
2023/05/31 01:59:37;;;;;;;;;;;17.80;94.30;;;;;;4811153;29;19935;-79
2023/05/31 02:02:06;;;;;;;;;;;17.70;94.20;;;;;;4848234;29;19936;-78
2023/05/31 02:04:35;;;;;;;;;;;17.70;94.20;;;;;;4831363;29;19966;-79
2023/05/31 02:07:02;;;;;;;;;;;17.60;94.20;;;;;;4819185;29;19974;-79
2023/05/31 02:09:29;;;;;;;;;;;17.60;94.20;;;;;;4818263;29;20471;-78
2023/05/31 02:11:56;;;;;;;;;;;17.80;94.00;;;;;;4835462;29;19935;-78
2023/05/31 02:14:24;;;;;;;;;;;17.60;94.10;;;;;;4822212;29;19931;-78
2023/05/31 02:16:51;;;;;;;;;;;17.50;94.10;;;;;;4818242;29;19935;-78
2023/05/31 02:19:19;;;;;;;;;;;17.50;94.10;;;;;;4802456;29;19942;-78
2023/05/31 02:21:46;;;;;;;;;;;17.60;94.00;;;;;;4846388;29;19935;-79
2023/05/31 02:24:13;;;;;;;;;;;17.50;93.90;;;;;;4844889;29;19928;-78
2023/05/31 02:26:41;;;;;;;;;;;17.80;94.10;;;;;;4818712;29;19963;-79
2023/05/31 02:29:09;;;;;;;;;;;17.50;93.90;;;;;;4816635;29;22298;-77
2023/05/31 02:31:37;;;;;;;;;;;17.50;93.80;;;;;;4821781;29;20400;-79
2023/05/31 02:34:04;;;;;;;;;;;17.50;94.00;;;;;;4803998;29;19943;-79
2023/05/31 02:36:31;;;;;;;;;;;17.50;94.10;;;;;;4827674;29;20370;-78
2023/05/31 02:38:58;;;;;;;;;;;17.50;94.20;;;;;;4818864;29;22620;-78
2023/05/31 02:41:26;;;;;;;;;;;17.50;93.90;;;;;;4835802;29;19936;-77
2023/05/31 02:43:53;;;;;;;;;;;17.40;94.00;;;;;;4833351;29;20632;-79
2023/05/31 02:46:20;;;;;;;;;;;17.30;94.10;;;;;;4800094;29;19943;-78
2023/05/31 02:48:47;;;;;;;;;;;17.40;94.30;;;;;;4804193;29;19942;-79
2023/05/31 02:51:14;;;;;;;;;;;17.40;94.30;;;;;;4831554;29;20300;-77
2023/05/31 02:54:00;;;;;;;;;;;17.60;94.30;;;;;;4823934;29;19943;-77
2023/05/31 02:56:30;;;;;;;;;;;17.30;93.90;;;;;;4833781;29;22095;-78
2023/05/31 02:59:08;;;;;;;;;;;17.30;94.00;;;;;;4814918;29;19943;-79
2023/05/31 03:01:40;;;;;;;;;;;17.40;94.00;;;;;;4821935;29;20445;-79
2023/05/31 03:04:28;;;;;;;;;;;17.40;93.90;;;;;;4832579;29;20542;-77
2023/05/31 03:06:57;;;;;;;;;;;17.40;93.60;;;;;;4820103;29;20026;-79
2023/05/31 03:09:25;;;;;;;;;;;17.30;93.80;;;;;;4830825;29;20642;-79
2023/05/31 03:11:53;;;;;;;;;;;17.30;93.70;;;;;;4793297;29;20038;-79
2023/05/31 03:14:21;;;;;;;;;;;17.30;93.40;;;;;;4803295;29;20018;-79
2023/05/31 03:16:52;;;;;;;;;;;17.20;93.50;;;;;;4801528;29;19980;-79
2023/05/31 03:19:20;;;;;;;;;;;17.20;93.60;;;;;;4836791;29;20551;-79
2023/05/31 03:21:51;;;;;;;;;;;17.20;93.50;;;;;;4834308;29;20127;-78
2023/05/31 03:24:18;;;;;;;;;;;17.30;93.40;;;;;;4817308;29;20027;-79
2023/05/31 03:26:47;;;;;;;;;;;17.30;93.40;;;;;;4821808;29;19936;-78
2023/05/31 03:29:14;;;;;;;;;;;17.30;93.20;;;;;;4829984;29;19928;-79
2023/05/31 03:31:41;;;;;;;;;;;17.20;93.40;;;;;;4825253;29;20394;-78
2023/05/31 03:34:09;;;;;;;;;;;17.10;93.50;;;;;;4823742;29;20030;-78
2023/05/31 03:36:37;;;;;;;;;;;17.10;93.60;;;;;;4824403;29;19974;-78
2023/05/31 03:39:20;;;;;;;;;;;17.30;93.60;;;;;;4821360;29;20067;-78
2023/05/31 03:41:47;;;;;;;;;;;17.20;93.50;;;;;;4817249;29;19936;-78
2023/05/31 03:44:14;;;;;;;;;;;17.20;93.60;;;;;;4838061;29;19935;-77
2023/05/31 03:46:41;;;;;;;;;;;17.20;93.60;;;;;;4852210;29;20043;-78
2023/05/31 03:49:10;;;;;;;;;;;17.20;93.80;;;;;;4840283;29;20739;-81
2023/05/31 03:51:40;;;;;;;;;;;17.10;93.70;;;;;;4830373;29;23244;-78
2023/05/31 03:54:09;;;;;;;;;;;17.20;93.80;;;;;;4821186;29;20774;-78
2023/05/31 03:56:37;;;;;;;;;;;17.20;93.60;;;;;;4835414;29;19943;-78
2023/05/31 03:59:04;;;;;;;;;;;17.30;93.70;;;;;;4817377;29;20506;-79
2023/05/31 04:01:34;;;;;;;;;;;17.30;93.60;;;;;;4838521;29;19936;-78
2023/05/31 04:04:02;;;;;;;;;;;16.90;93.50;;;;;;4824753;29;19936;-81
2023/05/31 04:06:33;;;;;;;;;;;17.30;93.80;;;;;;4830615;29;19942;-79
2023/05/31 04:09:00;;;;;;;;;;;17.20;93.80;;;;;;4825066;29;22552;-77
2023/05/31 04:11:27;;;;;;;;;;;17.20;93.60;;;;;;4839634;29;20304;-77
2023/05/31 04:13:54;;;;;;;;;;;17.20;93.80;;;;;;4839399;29;22241;-79
2023/05/31 04:16:23;;;;;;;;;;;17.30;93.60;;;;;;4825928;29;19935;-78
2023/05/31 04:18:54;;;;;;;;;;;17.40;93.40;;;;;;4826535;29;19943;-78
2023/05/31 04:21:21;;;;;;;;;;;17.40;93.40;;;;;;4835119;29;19942;-79
2023/05/31 04:23:48;;;;;;;;;;;17.40;93.50;;;;;;4814203;29;19940;-79
2023/05/31 04:26:18;;;;;;;;;;;17.40;93.40;;;;;;4806156;29;20089;-79
2023/05/31 04:28:54;;;;;;;;;;;17.50;93.40;;;;;;4829282;29;19942;-79
2023/05/31 04:31:25;;;;;;;;;;;17.50;93.20;;;;;;4849999;29;19931;-80
2023/05/31 04:34:10;;;;;;;;;;;17.50;93.20;;;;;;4823952;29;20690;-79
2023/05/31 04:36:39;;;;;;;;;;;17.50;93.10;;;;;;4839259;29;19944;-77
2023/05/31 04:39:12;;;;;;;;;;;17.50;93.10;;;;;;4808479;29;20316;-78
2023/05/31 04:41:39;;;;;;;;;;;17.50;92.90;;;;;;4805658;29;19944;-79
2023/05/31 04:44:07;;;;;;;;;;;17.60;92.80;;;;;;4810561;29;20408;-78
2023/05/31 04:46:36;;;;;;;;;;;17.60;92.80;;;;;;4914579;23;19926;-78
2023/05/31 04:49:04;;;;;;;;;;;17.60;92.50;;;;;;4790786;29;19971;-78
2023/05/31 04:51:32;;;;;;;;;;;17.60;92.50;;;;;;4813940;29;19943;-79
2023/05/31 04:54:00;;;;;;;;;;;17.70;92.60;;;;;;4820581;29;19937;-79
2023/05/31 04:56:27;;;;;;;;;;;17.90;92.30;;;;;;4829853;29;19932;-79
2023/05/31 04:58:55;;;;;;;;;;;17.90;92.10;;;;;;4826857;29;19937;-79
2023/05/31 05:01:23;;;;;;;;;;;18.00;92.30;;;;;;4810701;29;20042;-79
2023/05/31 05:04:00;;;;;;;;;;;18.00;92.00;;;;;;4809961;29;20337;-79
2023/05/31 05:06:29;;;;;;;;;;;18.00;92.00;;;;;;4821060;29;19937;-79
2023/05/31 05:08:57;;;;;;;;;;;18.20;91.80;;;;;;4830416;29;19959;-78
2023/05/31 05:11:26;;;;;;;;;;;18.20;92.00;;;;;;4790101;29;20440;-78
2023/05/31 05:13:53;;;;;;;;;;;18.30;91.30;;;;;;4816721;29;20590;-79
2023/05/31 05:16:23;;;;;;;;;;;18.30;91.50;;;;;;4796618;29;20014;-79
2023/05/31 05:18:50;;;;;;;;;;;18.50;91.10;;;;;;4816722;29;20693;-79
2023/05/31 05:21:17;;;;;;;;;;;18.50;91.10;;;;;;4826088;29;22254;-78
2023/05/31 05:23:44;;;;;;;;;;;18.60;90.50;;;;;;4790895;29;20016;-79
2023/05/31 05:26:12;;;;;;;;;;;18.70;90.20;;;;;;4796412;29;19934;-76
2023/05/31 05:28:39;;;;;;;;;;;18.70;89.20;;;;;;4793472;29;19936;-79
2023/05/31 05:31:06;;;;;;;;;;;18.90;89.90;;;;;;4799573;29;19971;-79
2023/05/31 05:33:37;;;;;;;;;;;19.00;87.60;;;;;;4805709;29;19972;-77
2023/05/31 05:36:05;;;;;;;;;;;19.10;86.60;;;;;;4797485;29;19937;-78
2023/05/31 05:38:35;;;;;;;;;;;19.20;86.00;;;;;;4807124;29;20972;-77
2023/05/31 05:41:03;;;;;;;;;;;19.20;85.70;;;;;;4795081;29;19936;-78
2023/05/31 05:43:31;;;;;;;;;;;19.30;85.40;;;;;;4791985;29;20697;-79
2023/05/31 05:46:07;;;;;;;;;;;19.30;84.90;;;;;;4804545;29;20024;-78
2023/05/31 05:48:34;;;;;;;;;;;19.30;83.90;;;;;;4796282;29;20189;-79
2023/05/31 05:51:03;;;;;;;;;;;19.30;84.20;;;;;;4776368;29;19943;-79
2023/05/31 05:53:30;;;;;;;;;;;19.40;83.60;;;;;;4784851;29;19959;-79
2023/05/31 05:55:58;;;;;;;;;;;19.40;83.60;;;;;;4809348;29;21534;-79
2023/05/31 05:58:31;;;;;;;;;;;19.50;82.90;;;;;;4818342;29;19943;-77
2023/05/31 06:01:20;;;;;;;;;;;19.60;82.80;;;;;;4804470;29;20538;-79
2023/05/31 06:03:51;;;;;;;;;;;19.60;83.50;;;;;;4789698;29;19944;-79
2023/05/31 06:06:19;;;;;;;;;;;19.70;82.60;;;;;;4811204;29;23117;-79
2023/05/31 06:08:46;;;;;;;;;;;19.80;82.90;;;;;;4828430;29;19972;-78
2023/05/31 06:11:18;;;;;;;;;;;19.90;82.30;;;;;;4821084;29;20376;-80
2023/05/31 06:13:46;;;;;;;;;;;20.10;81.20;;;;;;4799004;29;19929;-79
2023/05/31 06:16:16;;;;;;;;;;;20.20;79.80;;;;;;4812248;29;19969;-80
2023/05/31 06:18:43;;;;;;;;;;;20.30;80.20;;;;;;4807351;29;20323;-78
2023/05/31 06:21:10;;;;;;;;;;;20.40;79.80;;;;;;4774984;29;19937;-76
2023/05/31 06:23:37;;;;;;;;;;;20.50;79.00;;;;;;4793299;29;19936;-78
2023/05/31 06:26:05;;;;;;;;;;;20.50;79.90;;;;;;4788840;29;19967;-79
2023/05/31 06:28:32;;;;;;;;;;;20.60;78.50;;;;;;4796182;29;22995;-78
2023/05/31 06:31:07;;;;;;;;;;;20.80;78.20;;;;;;4781016;29;19943;-79
2023/05/31 06:33:34;;;;;;;;;;;20.80;78.50;;;;;;4813462;29;19984;-79
2023/05/31 06:36:02;;;;;;;;;;;20.80;77.00;;;;;;4814452;29;19936;-79
2023/05/31 06:38:29;;;;;;;;;;;20.90;77.20;;;;;;4801103;29;19936;-79
2023/05/31 06:40:57;;;;;;;;;;;21.10;77.80;;;;;;4796158;29;20035;-78
2023/05/31 06:43:24;;;;;;;;;;;20.30;77.30;;;;;;4777384;29;19943;-79
2023/05/31 06:46:17;;;;;;;;;;;21.10;76.60;;;;;;4797866;29;19999;-80
2023/05/31 06:49:07;;;;;;;;;;;21.20;76.80;;;;;;4775161;29;22383;-80
2023/05/31 06:52:01;;;;;;;;;;;21.30;75.80;;;;;;4816019;29;20527;-79
2023/05/31 06:54:28;;;;;;;;;;;21.70;75.10;;;;;;4777360;29;20061;-79
2023/05/31 06:56:57;;;;;;;;;;;22.00;74.60;;;;;;4772142;29;20013;-79
2023/05/31 06:59:24;;;;;;;;;;;22.10;73.20;;;;;;4802687;29;20086;-78
2023/05/31 07:01:52;;;;;;;;;;;22.00;73.10;;;;;;4764319;29;19937;-78
2023/05/31 07:04:20;;;;;;;;;;;21.90;71.70;;;;;;4777060;29;22431;-79
2023/05/31 07:06:47;;;;;;;;;;;21.90;71.90;;;;;;4774571;29;19943;-78
2023/05/31 07:09:14;;;;;;;;;;;21.90;72.00;;;;;;4799015;29;20081;-76
2023/05/31 07:12:00;;;;;;;;;;;21.90;71.90;;;;;;4801893;29;19943;-76
2023/05/31 07:14:30;;;;;;;;;;;21.70;71.10;;;;;;4805347;29;19936;-78
2023/05/31 07:16:57;;;;;;;;;;;21.80;71.90;;;;;;4811895;29;19936;-79
2023/05/31 07:19:24;;;;;;;;;;;22.00;71.80;;;;;;4796202;29;19936;-78
2023/05/31 07:21:51;;;;;;;;;;;22.00;71.20;;;;;;4808723;29;19996;-79
2023/05/31 07:24:18;;;;;;;;;;;22.00;71.30;;;;;;4793871;29;19941;-77
2023/05/31 07:26:45;;;;;;;;;;;22.30;71.20;;;;;;4797756;29;20340;-78
2023/05/31 07:29:12;;;;;;;;;;;22.50;70.50;;;;;;4786260;29;20078;-78
2023/05/31 07:31:39;;;;;;;;;;;22.50;69.70;;;;;;4811211;29;19943;-78
2023/05/31 07:34:26;;;;;;;;;;;22.50;69.80;;;;;;4790823;29;19937;-76
2023/05/31 07:36:55;;;;;;;;;;;22.80;69.50;;;;;;4768588;29;20050;-78
2023/05/31 07:39:23;;;;;;;;;;;22.70;69.90;;;;;;4761713;29;20074;-79
2023/05/31 07:41:50;;;;;;;;;;;22.70;70.40;;;;;;4781591;29;19933;-77
2023/05/31 07:44:18;;;;;;;;;;;22.60;69.40;;;;;;4765245;29;19932;-78
2023/05/31 07:46:45;;;;;;;;;;;22.70;70.50;;;;;;4789298;29;20665;-76
2023/05/31 07:49:12;;;;;;;;;;;23.00;70.00;;;;;;4774158;29;19944;-79
2023/05/31 07:51:39;;;;;;;;;;;23.20;70.50;;;;;;4797686;29;20436;-79
2023/05/31 07:54:06;;;;;;;;;;;23.30;69.40;;;;;;4778960;29;20727;-77
2023/05/31 07:56:33;;;;;;;;;;;23.50;70.60;;;;;;4767307;29;20675;-78
2023/05/31 07:59:00;;;;;;;;;;;23.60;70.00;;;;;;4771242;29;19993;-78
2023/05/31 08:01:28;;;;;;;;;;;23.50;68.40;;;;;;4754356;29;20084;-79
2023/05/31 08:04:04;;;;;;;;;;;23.60;69.00;;;;;;4774947;29;19937;-77
2023/05/31 08:06:32;;;;;;;;;;;23.70;68.60;;;;;;4775597;29;19937;-77
2023/05/31 08:09:00;;;;;;;;;;;23.70;68.80;;;;;;4765731;29;22612;-76
2023/05/31 08:11:28;;;;;;;;;;;23.70;66.80;;;;;;4783348;29;19936;-78
2023/05/31 08:13:55;;;;;;;;;;;23.80;68.40;;;;;;4775032;29;21632;-77
2023/05/31 08:16:22;;;;;;;;;;;23.80;66.00;;;;;;4788138;29;20452;-76
2023/05/31 08:18:49;;;;;;;;;;;23.90;66.20;;;;;;4782577;29;20645;-76
2023/05/31 08:21:16;;;;;;;;;;;24.10;66.10;;;;;;4787979;29;20067;-78
2023/05/31 08:23:44;;;;;;;;;;;24.20;66.40;;;;;;4818890;29;19936;-77
2023/05/31 08:26:11;;;;;;;;;;;24.30;66.10;;;;;;4825055;29;19936;-78
2023/05/31 08:28:38;;;;;;;;;;;24.30;65.10;;;;;;4811459;29;19943;-78
2023/05/31 08:31:05;;;;;;;;;;;24.30;63.90;;;;;;4798703;29;20015;-77
2023/05/31 08:33:35;;;;;;;;;;;24.30;64.10;;;;;;4815493;29;20413;-79
2023/05/31 08:36:05;;;;;;;;;;;24.30;64.90;;;;;;4763493;29;20100;-79
2023/05/31 08:38:35;;;;;;;;;;;24.60;64.60;;;;;;4788250;29;20029;-76
2023/05/31 08:41:04;;;;;;;;;;;24.30;64.50;;;;;;4773944;29;20449;-77
2023/05/31 08:43:31;;;;;;;;;;;24.20;63.50;;;;;;4783152;29;20069;-79
2023/05/31 08:45:58;;;;;;;;;;;24.20;62.90;;;;;;4771011;29;20524;-76
2023/05/31 08:48:30;;;;;;;;;;;24.30;63.10;;;;;;4739728;29;19936;-78
2023/05/31 08:50:58;;;;;;;;;;;24.30;63.40;;;;;;4744469;29;19936;-78
2023/05/31 08:53:25;;;;;;;;;;;24.30;62.80;;;;;;4781173;29;19937;-76
2023/05/31 08:55:53;;;;;;;;;;;24.40;62.50;;;;;;4774787;29;19943;-80
2023/05/31 08:58:20;;;;;;;;;;;24.50;62.70;;;;;;4758125;29;19936;-78
2023/05/31 09:00:48;;;;;;;;;;;24.50;63.70;;;;;;4770218;29;19929;-77
2023/05/31 09:03:16;;;;;;;;;;;24.40;62.10;;;;;;4743400;29;20306;-78
2023/05/31 09:05:43;;;;;;;;;;;24.40;62.60;;;;;;4781696;29;19936;-77
2023/05/31 09:08:11;;;;;;;;;;;24.60;63.00;;;;;;4788203;29;20529;-77
2023/05/31 09:10:39;;;;;;;;;;;24.50;61.50;;;;;;4801534;29;22302;-77
2023/05/31 09:13:06;;;;;;;;;;;24.50;62.10;;;;;;4780505;29;19997;-79
2023/05/31 09:15:36;;;;;;;;;;;24.40;62.00;;;;;;4788095;29;19937;-78
2023/05/31 09:18:33;;;;;;;;;;;24.50;61.90;;;;;;4776467;29;20974;-79
2023/05/31 09:21:06;;;;;;;;;;;24.50;63.20;;;;;;4790749;29;19984;-77
2023/05/31 09:23:33;;;;;;;;;;;24.50;62.90;;;;;;4817550;29;22571;-77
2023/05/31 09:26:01;;;;;;;;;;;24.50;63.00;;;;;;4775863;29;19943;-77
2023/05/31 09:28:28;;;;;;;;;;;24.60;62.90;;;;;;4776875;29;19983;-77
2023/05/31 09:31:05;;;;;;;;;;;24.60;63.20;;;;;;4794613;29;20075;-77
2023/05/31 09:33:41;;;;;;;;;;;24.70;63.50;;;;;;4775479;29;22321;-79
2023/05/31 09:36:08;;;;;;;;;;;24.80;62.30;;;;;;4788079;29;22292;-77
2023/05/31 09:38:36;;;;;;;;;;;24.80;61.30;;;;;;4806366;29;19944;-77
2023/05/31 09:41:13;;;;;;;;;;;24.80;62.40;;;;;;4806176;29;19937;-76
2023/05/31 09:43:40;;;;;;;;;;;24.80;61.50;;;;;;4778432;29;19967;-77
2023/05/31 09:46:15;;;;;;;;;;;24.70;62.30;;;;;;4806811;29;20055;-76
2023/05/31 09:48:43;;;;;;;;;;;24.70;62.30;;;;;;4796298;29;19937;-77
2023/05/31 09:51:11;;;;;;;;;;;24.80;62.60;;;;;;4813429;29;19937;-78
2023/05/31 09:53:39;;;;;;;;;;;24.90;62.20;;;;;;4796894;29;20144;-78
2023/05/31 09:56:10;;;;;;;;;;;24.80;59.90;;;;;;4791877;29;20023;-78
2023/05/31 09:58:38;;;;;;;;;;;24.80;60.70;;;;;;4811414;29;22188;-78
2023/05/31 10:01:06;;;;;;;;;;;24.80;60.50;;;;;;4786348;29;20685;-79
2023/05/31 10:03:33;;;;;;;;;;;24.80;61.30;;;;;;4805896;29;19944;-78
2023/05/31 10:06:03;;;;;;;;;;;25.10;63.20;;;;;;4779867;29;19979;-77
2023/05/31 10:08:40;;;;;;;;;;;24.90;60.60;;;;;;4800563;29;19936;-79
2023/05/31 10:11:08;;;;;;;;;;;25.00;61.60;;;;;;4778284;29;20434;-77
2023/05/31 10:13:37;;;;;;;;;;;25.10;60.80;;;;;;4801649;29;20006;-78
2023/05/31 10:16:07;;;;;;;;;;;25.10;61.50;;;;;;4785999;29;20043;-76
2023/05/31 10:18:36;;;;;;;;;;;25.10;60.60;;;;;;4812572;29;19936;-78
2023/05/31 10:21:08;;;;;;;;;;;25.20;60.30;;;;;;4807259;29;19943;-77
2023/05/31 10:23:41;;;;;;;;;;;25.10;60.70;;;;;;4790499;29;19936;-80
2023/05/31 10:26:13;;;;;;;;;;;25.20;60.60;;;;;;4803242;29;20708;-78
2023/05/31 10:29:00;;;;;;;;;;;25.10;59.60;;;;;;4799432;29;19936;-79
2023/05/31 10:31:32;;;;;;;;;;;25.10;60.50;;;;;;4786109;29;19936;-79
2023/05/31 10:34:22;;;;;;;;;;;25.30;59.90;;;;;;4782732;29;20415;-82
2023/05/31 10:36:51;;;;;;;;;;;25.30;60.60;;;;;;4800421;29;19994;-78
2023/05/31 10:39:24;;;;;;;;;;;25.30;60.20;;;;;;4801792;29;22371;-78
2023/05/31 10:42:12;;;;;;;;;;;25.20;60.00;;;;;;4794045;29;19928;-78
2023/05/31 10:44:42;;;;;;;;;;;25.10;60.10;;;;;;4788797;29;19937;-79
2023/05/31 10:47:10;;;;;;;;;;;25.30;61.30;;;;;;4805716;29;22164;-79
2023/05/31 10:49:39;;;;;;;;;;;25.40;61.00;;;;;;4815688;29;20400;-77
2023/05/31 10:52:08;;;;;;;;;;;25.40;59.30;;;;;;4797385;29;22145;-78
2023/05/31 10:54:36;;;;;;;;;;;25.20;58.70;;;;;;4804450;29;19999;-77
2023/05/31 10:57:05;;;;;;;;;;;25.30;58.50;;;;;;4787830;29;20420;-77
2023/05/31 10:59:44;;;;;;;;;;;25.20;58.70;;;;;;4799425;29;19936;-77
2023/05/31 11:02:11;;;;;;;;;;;25.20;58.90;;;;;;4761791;29;20507;-77
2023/05/31 11:04:41;;;;;;;;;;;25.30;59.80;;;;;;4806130;29;20056;-77
2023/05/31 11:07:18;;;;;;;;;;;25.40;59.50;;;;;;4798211;29;20003;-78
2023/05/31 11:09:59;;;;;;;;;;;25.30;59.10;;;;;;4814499;29;20089;-78
2023/05/31 11:12:35;;;;;;;;;;;25.40;59.60;;;;;;4804273;29;19948;-79
2023/05/31 11:15:03;;;;;;;;;;;25.50;60.40;;;;;;4794807;29;19973;-78
2023/05/31 11:17:38;;;;;;;;;;;25.50;59.60;;;;;;4807361;29;20412;-79
2023/05/31 11:20:06;;;;;;;;;;;25.50;59.20;;;;;;4796724;29;19936;-77
2023/05/31 11:22:34;;;;;;;;;;;25.50;59.00;;;;;;4773495;29;19959;-78
2023/05/31 11:25:01;;;;;;;;;;;25.40;58.80;;;;;;4784157;29;19943;-79
2023/05/31 11:27:48;;;;;;;;;;;25.50;58.60;;;;;;4813878;29;19938;-81
2023/05/31 11:30:16;;;;;;;;;;;25.50;58.00;;;;;;4811198;29;20082;-77
2023/05/31 11:32:43;;;;;;;;;;;25.50;58.10;;;;;;4785897;29;20431;-80
2023/05/31 11:35:16;;;;;;;;;;;25.40;57.70;;;;;;4781432;29;19936;-79
2023/05/31 11:37:45;;;;;;;;;;;25.50;58.90;;;;;;4789333;29;19944;-78
2023/05/31 11:40:14;;;;;;;;;;;25.60;58.80;;;;;;4788261;29;19944;-80
2023/05/31 11:42:46;;;;;;;;;;;25.60;58.70;;;;;;4808748;29;20296;-81
2023/05/31 11:45:17;;;;;;;;;;;25.70;57.80;;;;;;4781373;29;19936;-77
2023/05/31 11:51:27;;;;;;;;;;;25.80;58.80;;;;;;677265;23;20190;-77
2023/05/31 11:53:59;;;;;;;;;;;25.90;57.90;;;;;;4773674;29;19986;-81
2023/05/31 11:56:33;;;;;;;;;;;25.80;58.10;;;;;;4772514;29;20078;-81
2023/05/31 11:59:00;;;;;;;;;;;25.90;59.00;;;;;;4769884;29;19983;-78
2023/05/31 12:01:34;;;;;;;;;;;25.80;57.90;;;;;;4761730;29;19964;-79
2023/05/31 12:04:02;;;;;;;;;;;25.80;57.90;;;;;;4779415;29;19959;-80
2023/05/31 12:06:29;;;;;;;;;;;25.80;59.30;;;;;;4766837;29;19943;-78
2023/05/31 12:08:57;;;;;;;;;;;25.90;58.20;;;;;;4786377;29;20720;-81
2023/05/31 12:11:28;;;;;;;;;;;25.90;58.10;;;;;;4765713;29;22169;-78
2023/05/31 12:13:57;;;;;;;;;;;26.00;58.80;;;;;;4760420;29;19944;-78
2023/05/31 12:16:26;;;;;;;;;;;25.90;58.50;;;;;;4781928;29;19943;-81
2023/05/31 12:18:54;;;;;;;;;;;25.90;57.00;;;;;;4775322;29;19936;-81
2023/05/31 12:21:25;;;;;;;;;;;25.90;57.60;;;;;;4766010;29;20660;-79
2023/05/31 12:23:52;;;;;;;;;;;25.90;57.00;;;;;;4772334;29;22325;-79
2023/05/31 12:26:21;;;;;;;;;;;25.70;56.80;;;;;;4785979;29;19937;-77
2023/05/31 12:28:50;;;;;;;;;;;25.80;57.70;;;;;;4777953;29;20669;-80
2023/05/31 12:31:22;;;;;;;;;;;25.90;58.00;;;;;;4772953;29;19933;-81
2023/05/31 12:34:00;;;;;;;;;;;25.90;57.80;;;;;;4778107;29;19937;-78
2023/05/31 12:36:27;;;;;;;;;;;25.90;57.60;;;;;;4779470;29;19943;-79
2023/05/31 12:38:56;;;;;;;;;;;25.80;57.10;;;;;;4779645;29;20598;-81
2023/05/31 12:41:23;;;;;;;;;;;25.90;57.60;;;;;;4745579;29;20660;-80
2023/05/31 12:43:50;;;;;;;;;;;25.80;57.30;;;;;;4769507;29;20072;-78
2023/05/31 12:46:18;;;;;;;;;;;25.90;55.20;;;;;;4768841;29;19938;-78
2023/05/31 12:48:46;;;;;;;;;;;25.90;55.20;;;;;;4767162;29;19933;-79
2023/05/31 12:51:19;;;;;;;;;;;25.90;55.20;;;;;;4756136;29;19987;-80
2023/05/31 12:53:46;;;;;;;;;;;25.90;55.20;;;;;;4798668;29;19940;-80
2023/05/31 12:56:14;;;;;;;;;;;25.70;54.60;;;;;;4761538;29;19942;-77
2023/05/31 12:58:43;;;;;;;;;;;25.70;54.70;;;;;;4748818;29;20359;-78
2023/05/31 13:01:10;;;;;;;;;;;25.80;55.20;;;;;;4762833;29;19936;-81
2023/05/31 13:03:37;;;;;;;;;;;25.90;55.60;;;;;;4767630;29;19936;-79
2023/05/31 13:06:04;;;;;;;;;;;26.10;55.60;;;;;;4787714;29;19936;-78
2023/05/31 13:08:31;;;;;;;;;;;26.10;56.10;;;;;;4790623;29;20491;-78
2023/05/31 13:10:59;;;;;;;;;;;26.20;56.30;;;;;;4771110;29;19944;-79
2023/05/31 13:13:28;;;;;;;;;;;26.20;54.20;;;;;;4757154;29;20769;-83
2023/05/31 13:15:57;;;;;;;;;;;26.00;55.20;;;;;;4777548;29;19976;-78
2023/05/31 13:18:24;;;;;;;;;;;25.70;54.20;;;;;;4759767;29;19937;-81
2023/05/31 13:20:51;;;;;;;;;;;25.40;54.00;;;;;;4783469;29;19936;-79
2023/05/31 13:23:19;;;;;;;;;;;25.40;53.60;;;;;;4783545;29;20632;-82
2023/05/31 13:25:46;;;;;;;;;;;25.60;54.30;;;;;;4781279;29;19939;-81
2023/05/31 13:28:13;;;;;;;;;;;25.70;53.20;;;;;;4776923;29;22600;-78
2023/05/31 13:30:40;;;;;;;;;;;25.80;54.60;;;;;;4789948;29;20475;-81
2023/05/31 13:33:07;;;;;;;;;;;25.80;54.30;;;;;;4761893;29;20430;-80
2023/05/31 13:35:36;;;;;;;;;;;25.90;55.50;;;;;;4811867;29;19936;-80
2023/05/31 13:38:04;;;;;;;;;;;25.90;55.10;;;;;;4785470;29;19937;-80
2023/05/31 13:40:31;;;;;;;;;;;26.00;55.30;;;;;;4766796;29;19937;-78
2023/05/31 13:42:58;;;;;;;;;;;26.10;55.00;;;;;;4788404;29;20622;-80
2023/05/31 13:45:25;;;;;;;;;;;26.10;55.50;;;;;;4774288;29;20914;-79
2023/05/31 13:47:53;;;;;;;;;;;26.10;55.40;;;;;;4796816;29;20798;-80
2023/05/31 13:50:20;;;;;;;;;;;26.20;55.00;;;;;;4789644;29;19987;-80
2023/05/31 13:52:47;;;;;;;;;;;26.20;55.80;;;;;;4767766;29;20409;-78
2023/05/31 13:55:15;;;;;;;;;;;26.20;55.50;;;;;;4763520;29;19936;-81
2023/05/31 13:57:43;;;;;;;;;;;26.10;55.00;;;;;;4785382;29;19961;-79
2023/05/31 14:00:12;;;;;;;;;;;26.10;55.30;;;;;;4775550;29;19944;-81
2023/05/31 14:02:41;;;;;;;;;;;26.00;55.10;;;;;;4792428;29;19937;-80
2023/05/31 14:05:10;;;;;;;;;;;26.10;56.40;;;;;;4769607;29;19937;-83
2023/05/31 14:07:37;;;;;;;;;;;26.10;56.40;;;;;;4757906;29;20036;-79
2023/05/31 14:10:06;;;;;;;;;;;26.10;56.00;;;;;;4754257;29;19937;-80
2023/05/31 14:12:33;;;;;;;;;;;26.00;56.50;;;;;;4765401;29;19936;-81
2023/05/31 14:15:01;;;;;;;;;;;26.10;56.70;;;;;;4780628;29;19937;-80
2023/05/31 14:17:31;;;;;;;;;;;26.10;57.10;;;;;;4755971;29;19936;-83
2023/05/31 14:19:58;;;;;;;;;;;26.20;56.30;;;;;;4782384;29;20002;-79
2023/05/31 14:22:26;;;;;;;;;;;26.20;56.60;;;;;;4771951;29;20394;-78
2023/05/31 14:24:53;;;;;;;;;;;25.90;56.10;;;;;;4771084;29;20535;-80
2023/05/31 14:27:21;;;;;;;;;;;25.70;55.90;;;;;;4793365;29;19937;-78
2023/05/31 14:29:48;;;;;;;;;;;25.70;56.50;;;;;;4770427;29;19929;-81
2023/05/31 14:32:16;;;;;;;;;;;25.70;56.30;;;;;;4775283;29;20081;-80